Time;durP1;ratioP1;P1;durP2;ratioP2;P2;SDS_P1;SDS_P2;PMS_P1;PMS_P2;Temp;Humidity;BMP_temperature;BMP_pressure;BME280_temperature;BME280_humidity;BME280_pressure;Samples;Min_cycle;Max_cycle;Signal;HPM_P1;HPM_P2
2021/03/29 00:00:12;;;;;;;0.40;0.40;;;11.10;99.90;;;;;;4401519;32;20077;-77
2021/03/29 00:02:38;;;;;;;0.47;0.47;;;11.10;99.90;;;;;;4400499;32;20506;-77
2021/03/29 00:05:04;;;;;;;0.25;0.25;;;11.20;99.90;;;;;;4401179;32;20161;-77
2021/03/29 00:07:33;;;;;;;0.40;0.40;;;11.20;99.90;;;;;;4400715;32;20424;-77
2021/03/29 00:10:02;;;;;;;1.25;0.65;;;11.20;99.90;;;;;;4399170;32;20062;-77
2021/03/29 00:12:28;;;;;;;0.30;0.30;;;11.30;99.90;;;;;;4400011;32;20074;-77
2021/03/29 00:14:54;;;;;;;0.30;0.30;;;11.20;99.90;;;;;;4401142;32;20125;-78
2021/03/29 00:17:20;;;;;;;0.32;0.32;;;11.20;99.90;;;;;;4400769;32;20066;-77
2021/03/29 00:19:46;;;;;;;0.68;0.60;;;11.10;99.90;;;;;;4399609;32;20070;-78
2021/03/29 00:22:12;;;;;;;0.30;0.30;;;11.10;99.90;;;;;;4400522;32;20062;-76
2021/03/29 00:24:38;;;;;;;0.32;0.32;;;11.20;99.90;;;;;;4399585;32;20103;-77
2021/03/29 00:27:05;;;;;;;0.30;0.30;;;11.10;99.90;;;;;;4399307;32;20112;-77
2021/03/29 00:29:30;;;;;;;0.40;0.40;;;11.10;99.90;;;;;;4400493;32;20496;-78
2021/03/29 00:31:58;;;;;;;0.35;0.35;;;11.10;99.90;;;;;;4399871;32;20086;-77
2021/03/29 00:34:23;;;;;;;0.40;0.40;;;11.20;99.90;;;;;;4399634;32;20070;-77
2021/03/29 00:36:51;;;;;;;0.32;0.32;;;11.20;99.90;;;;;;4399013;32;20134;-77
2021/03/29 00:39:17;;;;;;;0.60;0.60;;;11.20;99.90;;;;;;4400238;32;20066;-77
2021/03/29 00:41:43;;;;;;;0.40;0.40;;;11.20;99.90;;;;;;4399891;32;20083;-78
2021/03/29 00:44:10;;;;;;;1.12;0.68;;;11.20;99.90;;;;;;4399793;32;20502;-77
2021/03/29 00:46:38;;;;;;;0.40;0.40;;;11.20;99.90;;;;;;4399319;32;20535;-77
2021/03/29 00:49:04;;;;;;;0.55;0.55;;;11.20;99.90;;;;;;4399810;32;20081;-77
2021/03/29 00:51:32;;;;;;;6.40;1.55;;;11.20;99.90;;;;;;4400455;32;20114;-77
2021/03/29 00:54:00;;;;;;;0.40;0.40;;;11.10;99.90;;;;;;4399814;32;20087;-77
2021/03/29 00:56:27;;;;;;;0.70;0.70;;;11.10;99.90;;;;;;4399722;32;20077;-77
2021/03/29 00:58:54;;;;;;;0.40;0.40;;;11.10;99.90;;;;;;4399720;32;20066;-76
2021/03/29 01:01:23;;;;;;;0.40;0.40;;;11.10;99.90;;;;;;4398854;32;20507;-77
2021/03/29 01:03:53;;;;;;;0.40;0.40;;;11.10;99.90;;;;;;4398880;32;20125;-76
2021/03/29 01:06:21;;;;;;;0.30;0.30;;;11.10;99.90;;;;;;4399342;32;20121;-76
2021/03/29 01:08:51;;;;;;;7.90;2.08;;;11.10;99.90;;;;;;4398847;32;20094;-77
2021/03/29 01:11:22;;;;;;;0.40;0.40;;;11.10;99.90;;;;;;4385010;32;20070;-77
2021/03/29 01:13:51;;;;;;;;;;;11.10;99.90;;;;;;4384651;32;20571;-77
2021/03/29 01:16:21;;;;;;;0.70;0.70;;;11.10;99.90;;;;;;4384772;32;19945;-77
2021/03/29 01:18:51;;;;;;;0.30;0.30;;;11.10;99.90;;;;;;4384374;32;20070;-77
2021/03/29 01:21:45;;;;;;;4.00;0.60;;;11.10;99.90;;;;;;4384031;32;20121;-77
2021/03/29 01:24:17;;;;;;;2.25;0.60;;;11.00;99.90;;;;;;4374864;32;20062;-77
2021/03/29 01:26:45;;;;;;;0.20;0.20;;;11.10;99.90;;;;;;4383378;32;20095;-77
2021/03/29 01:29:13;;;;;;;0.40;0.40;;;11.10;99.90;;;;;;4384258;32;20086;-77
2021/03/29 01:31:39;;;;;;;0.50;0.50;;;11.10;99.90;;;;;;4384937;32;20129;-77
2021/03/29 01:34:06;;;;;;;0.30;0.30;;;11.10;99.90;;;;;;4384802;32;20066;-77
2021/03/29 01:36:33;;;;;;;0.20;0.20;;;11.00;99.90;;;;;;4383324;32;20449;-77
2021/03/29 01:39:00;;;;;;;8.70;1.58;;;11.00;99.90;;;;;;4383799;32;20173;-77
2021/03/29 01:41:27;;;;;;;0.43;0.43;;;11.00;99.90;;;;;;4385554;32;20050;-76
2021/03/29 01:43:53;;;;;;;0.40;0.40;;;11.00;99.90;;;;;;4385888;32;20058;-77
2021/03/29 01:46:19;;;;;;;1.33;1.20;;;11.00;99.90;;;;;;4384297;32;20065;-77
2021/03/29 01:48:45;;;;;;;0.35;0.35;;;11.00;99.90;;;;;;4383031;32;20058;-76
2021/03/29 01:51:11;;;;;;;1.20;0.80;;;11.00;99.90;;;;;;4383287;32;20062;-76
2021/03/29 01:53:38;;;;;;;1.35;0.93;;;11.10;99.90;;;;;;4383314;32;20090;-76
2021/03/29 01:56:04;;;;;;;0.70;0.52;;;11.10;99.90;;;;;;4383644;32;20090;-77
2021/03/29 01:58:30;;;;;;;0.52;0.52;;;11.10;99.90;;;;;;4384411;32;20143;-77
2021/03/29 02:00:59;;;;;;;0.57;0.32;;;11.10;99.90;;;;;;4384602;32;20074;-76
2021/03/29 02:03:26;;;;;;;0.60;0.60;;;11.10;99.90;;;;;;4384871;32;20059;-77
2021/03/29 02:05:52;;;;;;;0.55;0.55;;;11.00;99.90;;;;;;4382986;32;20511;-76
2021/03/29 02:08:19;;;;;;;0.70;0.70;;;11.10;99.90;;;;;;4382621;32;20059;-78
2021/03/29 02:10:46;;;;;;;6.03;2.28;;;11.10;99.90;;;;;;4393648;32;20063;-77
2021/03/29 02:13:15;;;;;;;0.35;0.35;;;11.00;99.90;;;;;;4398834;32;20062;-77
2021/03/29 02:15:42;;;;;;;0.75;0.60;;;11.00;99.90;;;;;;4399015;32;20090;-76
2021/03/29 02:18:13;;;;;;;0.40;0.40;;;11.00;99.90;;;;;;4398239;32;20411;-76
2021/03/29 02:20:38;;;;;;;;;;;10.90;99.90;;;;;;4398580;32;20117;-77
2021/03/29 02:23:07;;;;;;;0.40;0.40;;;10.90;99.90;;;;;;4398442;32;19953;-77
2021/03/29 02:25:33;;;;;;;4.53;1.05;;;10.90;99.90;;;;;;4397188;32;20125;-77
2021/03/29 02:28:00;;;;;;;0.55;0.47;;;10.90;99.90;;;;;;4398131;32;20494;-77
2021/03/29 02:30:31;;;;;;;0.60;0.60;;;10.90;99.90;;;;;;4397777;32;20058;-77
2021/03/29 02:32:58;;;;;;;1.37;0.85;;;10.90;99.90;;;;;;4399017;32;20062;-77
2021/03/29 02:35:24;;;;;;;0.40;0.40;;;10.90;99.90;;;;;;4398551;32;20062;-77
2021/03/29 02:37:53;;;;;;;0.77;0.77;;;11.00;99.90;;;;;;4398801;32;20066;-77
2021/03/29 02:40:21;;;;;;;16.48;0.65;;;11.00;99.90;;;;;;4398624;32;20083;-78
2021/03/29 02:42:49;;;;;;;2.80;0.60;;;10.80;99.90;;;;;;4399638;32;20073;-77
2021/03/29 02:45:16;;;;;;;0.45;0.45;;;10.90;99.90;;;;;;4398957;32;20074;-77
2021/03/29 02:47:44;;;;;;;0.30;0.30;;;10.80;99.90;;;;;;4399397;32;20083;-78
2021/03/29 02:50:14;;;;;;;2.65;0.65;;;10.70;99.90;;;;;;4398624;32;20133;-77
2021/03/29 02:52:43;;;;;;;1.48;0.73;;;10.70;99.90;;;;;;4400743;32;20396;-76
2021/03/29 02:55:11;;;;;;;0.50;0.50;;;10.70;99.90;;;;;;4399487;32;20177;-77
2021/03/29 02:57:38;;;;;;;0.37;0.37;;;10.60;99.90;;;;;;4400681;32;20125;-77
2021/03/29 03:00:10;;;;;;;0.55;0.55;;;10.60;99.90;;;;;;4400189;32;20073;-77
2021/03/29 03:02:36;;;;;;;0.40;0.40;;;10.60;99.90;;;;;;4402036;32;20574;-77
2021/03/29 03:05:08;;;;;;;0.40;0.40;;;10.60;99.90;;;;;;4401929;32;20074;-77
2021/03/29 03:07:35;;;;;;;0.88;0.62;;;10.60;99.90;;;;;;4401498;32;20125;-77
2021/03/29 03:10:03;;;;;;;0.30;0.30;;;10.60;99.90;;;;;;4394095;32;20128;-77
2021/03/29 03:12:29;;;;;;;0.52;0.52;;;10.70;99.90;;;;;;4386757;32;20247;-77
2021/03/29 03:14:55;;;;;;;0.60;0.60;;;10.70;99.90;;;;;;4386282;32;20100;-77
2021/03/29 03:17:21;;;;;;;0.57;0.57;;;10.70;99.90;;;;;;4386211;32;20101;-77
2021/03/29 03:19:46;;;;;;;0.40;0.40;;;10.70;99.90;;;;;;4385511;32;20085;-77
2021/03/29 03:22:13;;;;;;;5.37;1.17;;;10.70;99.90;;;;;;4386157;32;20074;-78
2021/03/29 03:24:39;;;;;;;0.57;0.57;;;10.50;99.90;;;;;;4386232;32;20066;-77
2021/03/29 03:27:08;;;;;;;0.80;0.80;;;10.50;99.90;;;;;;4385208;32;20086;-77
2021/03/29 03:29:38;;;;;;;1.05;0.65;;;10.50;99.90;;;;;;4386931;32;20090;-76
2021/03/29 03:32:04;;;;;;;2.72;0.60;;;10.50;99.90;;;;;;4385386;32;20078;-77
2021/03/29 03:34:30;;;;;;;1.08;0.77;;;10.60;99.90;;;;;;4385759;32;20083;-78
2021/03/29 03:36:56;;;;;;;0.65;0.65;;;10.60;99.90;;;;;;4385611;32;20066;-77
2021/03/29 03:39:22;;;;;;;0.25;0.25;;;10.60;99.90;;;;;;4385497;32;20062;-77
2021/03/29 03:41:48;;;;;;;0.40;0.40;;;10.60;99.90;;;;;;4385897;32;20085;-77
2021/03/29 03:44:15;;;;;;;4.20;0.50;;;10.60;99.90;;;;;;4386646;32;20082;-78
2021/03/29 03:46:41;;;;;;;0.50;0.50;;;10.60;99.90;;;;;;4386519;32;20125;-77
2021/03/29 03:49:11;;;;;;;0.50;0.50;;;10.70;99.90;;;;;;4386070;32;20472;-78
2021/03/29 03:51:38;;;;;;;0.20;0.20;;;10.70;99.90;;;;;;4386615;32;20119;-77
2021/03/29 03:54:07;;;;;;;19.77;0.50;;;10.70;99.90;;;;;;4386845;32;20512;-77
2021/03/29 03:56:33;;;;;;;0.50;0.50;;;10.70;99.90;;;;;;4384927;32;20578;-77
2021/03/29 03:58:59;;;;;;;0.40;0.40;;;10.70;99.90;;;;;;4385600;32;20079;-77
2021/03/29 04:01:25;;;;;;;1.15;0.60;;;10.70;99.90;;;;;;4385499;32;20070;-77
2021/03/29 04:03:51;;;;;;;0.32;0.32;;;10.70;99.90;;;;;;4385407;32;20083;-77
2021/03/29 04:06:16;;;;;;;1.52;0.77;;;10.70;99.90;;;;;;4384824;32;20083;-77
2021/03/29 04:08:44;;;;;;;0.60;0.60;;;10.70;99.90;;;;;;4384770;32;20096;-76
2021/03/29 04:11:11;;;;;;;1.98;1.02;;;10.70;99.90;;;;;;4397868;32;20090;-77
2021/03/29 04:13:36;;;;;;;0.30;0.30;;;10.70;99.90;;;;;;4400527;32;20197;-77
2021/03/29 04:16:05;;;;;;;0.30;0.30;;;10.70;99.90;;;;;;4399843;32;20073;-78
2021/03/29 04:18:31;;;;;;;0.32;0.32;;;10.70;99.90;;;;;;4401668;32;20543;-77
2021/03/29 04:20:58;;;;;;;0.90;0.77;;;10.60;99.90;;;;;;4401897;32;20464;-77
2021/03/29 04:23:25;;;;;;;0.55;0.55;;;10.60;99.90;;;;;;4400524;32;20075;-77
2021/03/29 04:25:52;;;;;;;0.57;0.52;;;10.70;99.90;;;;;;4400596;32;20079;-77
2021/03/29 04:28:17;;;;;;;0.40;0.40;;;10.70;99.90;;;;;;4399538;32;20066;-76
2021/03/29 04:30:43;;;;;;;0.40;0.40;;;10.70;99.90;;;;;;4399203;32;20074;-78
2021/03/29 04:33:09;;;;;;;0.60;0.60;;;10.70;99.90;;;;;;4400247;32;20074;-77
2021/03/29 04:35:35;;;;;;;0.60;0.60;;;10.60;99.90;;;;;;4400073;32;20141;-77
2021/03/29 04:38:00;;;;;;;0.57;0.55;;;10.70;99.90;;;;;;4399502;32;20074;-77
2021/03/29 04:40:27;;;;;;;0.30;0.30;;;10.70;99.90;;;;;;4400063;32;20066;-77
2021/03/29 04:42:54;;;;;;;0.85;0.82;;;10.60;99.90;;;;;;4400497;32;20487;-77
2021/03/29 04:45:21;;;;;;;0.70;0.70;;;10.60;99.90;;;;;;4401432;32;20507;-77
2021/03/29 04:47:46;;;;;;;0.90;0.60;;;10.70;99.90;;;;;;4401500;32;20082;-77
2021/03/29 04:50:14;;;;;;;0.37;0.37;;;10.60;99.90;;;;;;4399427;32;20069;-77
2021/03/29 04:52:40;;;;;;;1.95;1.02;;;10.60;99.90;;;;;;4399937;32;20440;-77
2021/03/29 04:55:06;;;;;;;0.40;0.40;;;10.60;99.90;;;;;;4399269;32;20083;-77
2021/03/29 04:57:32;;;;;;;0.40;0.40;;;10.60;99.90;;;;;;4399580;32;20065;-76
2021/03/29 04:59:57;;;;;;;3.67;0.73;;;10.70;99.90;;;;;;4400277;32;20125;-77
2021/03/29 05:02:23;;;;;;;0.50;0.50;;;10.70;99.90;;;;;;4399109;32;20529;-76
2021/03/29 05:04:48;;;;;;;1.17;0.70;;;10.70;99.90;;;;;;4399225;32;20066;-77
2021/03/29 05:07:14;;;;;;;0.40;0.40;;;10.80;99.90;;;;;;4399891;32;20116;-77
2021/03/29 05:09:41;;;;;;;1.15;0.62;;;10.80;99.90;;;;;;4395105;32;20066;-77
2021/03/29 05:12:09;;;;;;;0.85;0.82;;;10.70;99.90;;;;;;4384258;32;20078;-78
2021/03/29 05:14:36;;;;;;;16.98;0.73;;;10.80;99.90;;;;;;4384475;32;20080;-77
2021/03/29 05:17:01;;;;;;;0.32;0.32;;;10.70;99.90;;;;;;4385177;32;20082;-78
2021/03/29 05:19:27;;;;;;;0.50;0.50;;;10.70;99.90;;;;;;4384878;32;20082;-76
2021/03/29 05:21:52;;;;;;;2.22;0.70;;;10.70;99.90;;;;;;4384770;32;20062;-78
2021/03/29 05:24:18;;;;;;;0.32;0.32;;;10.70;99.90;;;;;;4386035;32;20131;-78
2021/03/29 05:26:44;;;;;;;0.43;0.43;;;10.70;99.90;;;;;;4385697;32;20078;-77
2021/03/29 05:29:09;;;;;;;0.45;0.45;;;10.80;99.90;;;;;;4384342;32;20566;-77
2021/03/29 05:31:39;;;;;;;12.10;1.33;;;10.80;99.90;;;;;;4384756;32;20096;-77
2021/03/29 05:34:05;;;;;;;0.50;0.50;;;10.80;99.90;;;;;;4384980;32;20067;-79
2021/03/29 05:36:30;;;;;;;3.28;1.05;;;10.80;99.90;;;;;;4384664;32;20062;-77
2021/03/29 05:38:56;;;;;;;0.30;0.30;;;10.80;99.90;;;;;;4384908;32;20067;-77
2021/03/29 05:41:22;;;;;;;0.85;0.73;;;10.80;99.90;;;;;;4384676;32;20597;-77
2021/03/29 05:43:48;;;;;;;3.35;1.05;;;10.90;99.90;;;;;;4384670;32;20401;-78
2021/03/29 05:46:14;;;;;;;5.65;1.70;;;10.90;99.90;;;;;;4383883;32;20079;-78
2021/03/29 05:48:40;;;;;;;0.70;0.70;;;10.80;99.90;;;;;;4384189;32;20415;-77
2021/03/29 05:51:07;;;;;;;0.40;0.40;;;10.80;99.90;;;;;;4384626;32;20067;-77
2021/03/29 05:53:34;;;;;;;0.73;0.73;;;10.90;99.90;;;;;;4383949;32;20456;-77
2021/03/29 05:56:00;;;;;;;2.30;1.05;;;10.90;99.90;;;;;;4384168;32;20163;-78
2021/03/29 06:00:54;;;;;;;5.32;1.90;;;10.90;99.90;;;;;;4383612;32;20113;-77
2021/03/29 06:03:22;;;;;;;0.30;0.30;;;10.90;99.90;;;;;;4389442;32;20074;-77
2021/03/29 06:05:49;;;;;;;9.77;0.88;;;11.00;99.90;;;;;;4399084;32;20073;-77
2021/03/29 06:08:19;;;;;;;0.30;0.30;;;11.00;99.90;;;;;;4401135;32;20081;-77
2021/03/29 06:10:46;;;;;;;2.67;0.93;;;11.00;99.90;;;;;;4401815;32;20054;-77
2021/03/29 06:13:17;;;;;;;0.40;0.40;;;11.00;99.90;;;;;;4394472;32;20147;-77
2021/03/29 06:15:44;;;;;;;1.17;0.62;;;11.10;99.90;;;;;;4399776;32;20058;-77
2021/03/29 06:18:11;;;;;;;23.55;1.15;;;11.10;99.90;;;;;;4398486;32;20061;-77
2021/03/29 06:20:59;;;;;;;0.62;0.62;;;11.10;99.90;;;;;;4412003;32;20087;-77
2021/03/29 06:23:25;;;;;;;0.62;0.62;;;11.10;99.90;;;;;;4371710;32;20062;-77
2021/03/29 06:25:50;;;;;;;0.57;0.57;;;11.20;99.90;;;;;;4381914;32;20086;-77
2021/03/29 06:28:25;;;;;;;0.40;0.40;;;11.20;99.90;;;;;;4383347;32;20063;-75
2021/03/29 06:30:50;;;;;;;4.28;0.50;;;11.20;99.90;;;;;;4382550;32;20078;-75
2021/03/29 06:33:16;;;;;;;0.40;0.40;;;11.20;99.90;;;;;;4382798;32;20062;-78
2021/03/29 06:35:49;;;;;;;1.55;0.73;;;11.30;99.90;;;;;;4383143;32;20523;-76
2021/03/29 06:38:18;;;;;;;0.55;0.47;;;11.30;99.90;;;;;;4382279;32;20062;-76
2021/03/29 06:40:53;;;;;;;0.40;0.40;;;11.30;99.90;;;;;;4369959;32;20062;-76
2021/03/29 06:43:23;;;;;;;6.55;2.50;;;11.20;99.90;;;;;;4383296;32;20067;-76
2021/03/29 06:45:50;;;;;;;0.40;0.40;;;11.20;99.90;;;;;;4384213;32;20127;-76
2021/03/29 06:48:34;;;;;;;0.30;0.30;;;11.30;99.90;;;;;;4382995;32;20421;-76
2021/03/29 06:51:15;;;;;;;0.30;0.30;;;11.40;99.90;;;;;;4384068;32;20066;-76
2021/03/29 06:53:44;;;;;;;0.40;0.40;;;11.30;99.90;;;;;;4396588;32;20082;-76
2021/03/29 06:56:31;;;;;;;0.37;0.37;;;11.40;99.90;;;;;;4397833;32;20066;-76
2021/03/29 06:59:08;;;;;;;1.23;0.88;;;11.50;99.90;;;;;;4396927;32;20116;-76
2021/03/29 07:01:36;;;;;;;0.60;0.60;;;11.60;99.90;;;;;;4414345;32;20118;-77
2021/03/29 07:04:04;;;;;;;0.30;0.30;;;11.60;99.90;;;;;;4394227;32;20082;-77
2021/03/29 07:06:31;;;;;;;2.05;0.43;;;11.60;99.90;;;;;;4389449;32;20058;-76
2021/03/29 07:09:05;;;;;;;0.50;0.50;;;11.60;99.90;;;;;;4412856;32;20078;-77
2021/03/29 07:11:32;;;;;;;11.07;0.55;;;11.70;99.90;;;;;;4382593;32;20074;-77
2021/03/29 07:13:58;;;;;;;0.73;0.73;;;11.70;99.90;;;;;;4382776;32;20066;-77
2021/03/29 07:16:26;;;;;;;1.77;0.88;;;11.70;99.90;;;;;;4382910;32;20066;-77
2021/03/29 07:18:56;;;;;;;3.53;0.68;;;11.70;99.90;;;;;;4382779;32;20549;-77
2021/03/29 07:21:21;;;;;;;0.43;0.43;;;11.80;99.90;;;;;;4383421;32;20075;-77
2021/03/29 07:23:47;;;;;;;1.45;0.70;;;11.90;99.90;;;;;;4382642;32;20097;-78
2021/03/29 07:26:36;;;;;;;0.30;0.30;;;11.90;99.90;;;;;;4382280;32;20063;-76
2021/03/29 07:29:24;;;;;;;22.25;0.95;;;12.10;99.90;;;;;;4371806;32;20070;-76
2021/03/29 07:31:56;;;;;;;33.47;2.15;;;12.20;99.90;;;;;;4370995;32;20095;-76
2021/03/29 07:34:43;;;;;;;0.32;0.32;;;12.20;99.90;;;;;;4382509;32;20070;-76
2021/03/29 07:37:31;;;;;;;5.60;0.60;;;12.20;99.90;;;;;;4372007;32;20078;-76
2021/03/29 07:39:59;;;;;;;0.45;0.45;;;12.30;99.90;;;;;;4374867;32;20187;-76
2021/03/29 07:42:28;;;;;;;0.65;0.65;;;12.40;99.90;;;;;;4386498;32;20059;-77
2021/03/29 07:44:57;;;;;;;0.73;0.73;;;12.40;99.90;;;;;;4385283;32;20473;-77
2021/03/29 07:47:52;;;;;;;0.47;0.47;;;12.50;99.90;;;;;;4397345;32;20094;-77
2021/03/29 07:50:38;;;;;;;0.60;0.60;;;12.60;99.90;;;;;;4390127;32;20066;-77
2021/03/29 07:53:07;;;;;;;0.40;0.40;;;12.60;99.90;;;;;;4388744;32;20078;-76
2021/03/29 07:55:38;;;;;;;0.60;0.60;;;12.70;99.90;;;;;;4399291;32;20071;-76
2021/03/29 07:58:07;;;;;;;2.42;1.00;;;12.80;99.90;;;;;;4405616;32;20476;-76
2021/03/29 08:00:35;;;;;;;3.60;0.45;;;12.80;99.90;;;;;;4415579;32;20103;-77
2021/03/29 08:03:23;;;;;;;0.40;0.40;;;13.00;99.90;;;;;;4414717;32;20074;-76
2021/03/29 08:05:51;;;;;;;4.70;1.40;;;13.00;99.90;;;;;;4403838;32;20489;-77
2021/03/29 08:08:28;;;;;;;2.62;1.00;;;13.00;99.90;;;;;;4415814;32;20401;-77
2021/03/29 08:10:57;;;;;;;0.60;0.60;;;13.10;99.90;;;;;;4388820;32;20081;-77
2021/03/29 08:13:49;;;;;;;0.75;0.70;;;13.10;99.90;;;;;;4399577;32;20107;-77
2021/03/29 08:16:17;;;;;;;3.92;1.10;;;13.10;99.90;;;;;;4389267;32;20134;-77
2021/03/29 08:19:19;;;;;;;2.10;1.12;;;13.30;99.90;;;;;;4399344;32;20529;-77
2021/03/29 08:21:49;;;;;;;2.85;0.50;;;13.40;99.90;;;;;;4390120;32;20124;-77
2021/03/29 08:24:20;;;;;;;0.50;0.50;;;13.40;99.90;;;;;;4401257;32;20402;-77
2021/03/29 08:26:47;;;;;;;0.65;0.65;;;13.50;99.90;;;;;;4399801;32;20763;-77
2021/03/29 08:29:15;;;;;;;0.45;0.45;;;13.50;99.90;;;;;;4400695;32;20066;-77
2021/03/29 08:32:05;;;;;;;2.85;1.08;;;13.60;99.90;;;;;;4400950;32;20070;-75
2021/03/29 08:34:40;;;;;;;0.50;0.50;;;13.70;99.90;;;;;;4388896;32;20083;-76
2021/03/29 08:37:07;;;;;;;0.55;0.55;;;13.80;99.90;;;;;;4399344;32;20070;-76
2021/03/29 08:39:39;;;;;;;1.17;1.10;;;13.90;99.90;;;;;;4401371;32;20518;-76
2021/03/29 08:42:06;;;;;;;16.50;0.73;;;13.90;99.90;;;;;;4399788;32;20077;-76
2021/03/29 08:44:32;;;;;;;0.50;0.50;;;13.90;99.90;;;;;;4399997;32;20519;-76
2021/03/29 08:46:58;;;;;;;0.45;0.45;;;13.90;99.90;;;;;;4390243;32;20566;-77
2021/03/29 08:49:25;;;;;;;0.40;0.40;;;13.90;99.90;;;;;;4384176;32;20178;-77
2021/03/29 08:51:51;;;;;;;1.17;0.95;;;14.00;99.90;;;;;;4384398;32;20496;-76
2021/03/29 08:54:17;;;;;;;0.30;0.30;;;14.00;99.90;;;;;;4385057;32;20092;-76
2021/03/29 08:56:48;;;;;;;0.30;0.30;;;14.10;99.90;;;;;;4383972;32;20066;-76
2021/03/29 08:59:15;;;;;;;0.30;0.30;;;14.10;99.90;;;;;;4412138;32;20128;-77
2021/03/29 09:01:41;;;;;;;0.30;0.30;;;14.00;99.90;;;;;;4415365;32;20641;-77
2021/03/29 09:04:08;;;;;;;0.77;0.77;;;14.10;99.90;;;;;;4415980;32;20444;-76
2021/03/29 09:06:35;;;;;;;0.40;0.40;;;14.10;99.90;;;;;;4413692;32;20577;-76
2021/03/29 09:09:17;;;;;;;2.40;1.08;;;14.30;99.90;;;;;;4413812;32;20070;-76
2021/03/29 09:11:46;;;;;;;0.82;0.82;;;14.40;99.90;;;;;;4398605;32;20129;-76
2021/03/29 09:14:14;;;;;;;1.55;0.82;;;14.60;99.90;;;;;;4399728;32;20473;-76
2021/03/29 09:16:40;;;;;;;1.30;1.00;;;14.60;99.90;;;;;;4399846;32;20086;-76
2021/03/29 09:19:12;;;;;;;0.50;0.50;;;14.60;99.90;;;;;;4399105;32;20070;-76
2021/03/29 09:21:39;;;;;;;0.40;0.40;;;14.60;99.90;;;;;;4398859;32;20086;-76
2021/03/29 09:24:26;;;;;;;0.57;0.57;;;14.70;99.90;;;;;;4399032;32;20139;-76
2021/03/29 09:26:58;;;;;;;0.50;0.50;;;14.70;99.90;;;;;;4386818;32;20113;-77
2021/03/29 09:29:40;;;;;;;0.77;0.77;;;14.90;99.90;;;;;;4399230;32;20609;-78
2021/03/29 09:32:09;;;;;;;0.37;0.37;;;15.10;99.90;;;;;;4400165;32;20071;-77
2021/03/29 09:34:36;;;;;;;8.00;1.10;;;15.10;99.90;;;;;;4399665;32;20074;-77
2021/03/29 09:37:02;;;;;;;0.32;0.32;;;15.10;99.90;;;;;;4398477;32;20124;-77
2021/03/29 09:39:30;;;;;;;0.40;0.40;;;15.20;99.90;;;;;;4396279;32;84525;-77
2021/03/29 09:41:56;;;;;;;2.17;0.50;;;15.40;99.90;;;;;;4400427;32;20085;-77
2021/03/29 09:44:28;;;;;;;2.72;1.05;;;15.70;99.90;;;;;;4399635;32;20542;-77
2021/03/29 09:46:55;;;;;;;0.50;0.50;;;15.70;99.90;;;;;;4390730;32;20399;-77
2021/03/29 09:49:21;;;;;;;0.95;0.50;;;15.90;99.90;;;;;;4384089;32;20079;-77
2021/03/29 09:51:49;;;;;;;0.30;0.30;;;15.80;99.90;;;;;;4383141;32;20058;-77
2021/03/29 09:54:32;;;;;;;0.30;0.30;;;15.90;99.90;;;;;;4383215;32;20063;-77
2021/03/29 09:57:21;;;;;;;0.25;0.25;;;15.90;99.90;;;;;;4382376;32;20077;-77
2021/03/29 09:59:48;;;;;;;0.50;0.50;;;15.90;99.90;;;;;;4382935;32;20433;-77
2021/03/29 10:02:16;;;;;;;0.77;0.62;;;16.10;99.90;;;;;;4383536;32;20075;-77
2021/03/29 10:04:44;;;;;;;0.32;0.32;;;16.40;99.90;;;;;;4382277;32;20121;-77
2021/03/29 10:07:15;;;;;;;12.00;0.52;;;16.40;99.90;;;;;;4398597;32;20409;-77
2021/03/29 10:09:44;;;;;;;0.62;0.62;;;16.40;99.90;;;;;;4409649;32;20074;-77
2021/03/29 10:12:09;;;;;;;3.67;0.85;;;16.20;99.90;;;;;;4398922;32;20113;-76
2021/03/29 10:14:38;;;;;;;0.50;0.50;;;16.10;99.90;;;;;;4398035;32;20452;-77
2021/03/29 10:17:20;;;;;;;0.60;0.60;;;16.10;99.90;;;;;;4398705;32;20086;-77
2021/03/29 10:19:47;;;;;;;0.77;0.77;;;16.20;99.90;;;;;;4397651;32;20370;-77
2021/03/29 10:22:16;;;;;;;0.60;0.60;;;16.20;99.90;;;;;;4398103;32;20057;-77
2021/03/29 10:25:18;;;;;;;0.60;0.60;;;16.40;99.90;;;;;;4397624;32;20117;-77
2021/03/29 10:27:46;;;;;;;1.17;0.45;;;16.60;99.90;;;;;;4397609;32;20069;-77
2021/03/29 10:30:26;;;;;;;0.37;0.37;;;16.70;99.90;;;;;;4384568;32;20117;-77
2021/03/29 10:32:58;;;;;;;1.00;0.85;;;16.80;99.90;;;;;;4397996;32;20066;-77
2021/03/29 10:35:28;;;;;;;0.68;0.65;;;16.60;99.90;;;;;;4398262;32;20136;-77
2021/03/29 10:37:54;;;;;;;16.85;0.70;;;16.50;99.90;;;;;;4399180;32;20404;-77
2021/03/29 10:40:20;;;;;;;0.30;0.30;;;16.50;99.90;;;;;;4397872;32;20069;-77
2021/03/29 10:42:46;;;;;;;0.43;0.43;;;16.30;99.90;;;;;;4398837;32;20069;-77
2021/03/29 10:45:14;;;;;;;0.85;0.60;;;16.20;99.90;;;;;;4398387;32;20069;-77
2021/03/29 10:47:40;;;;;;;0.50;0.50;;;16.00;99.90;;;;;;4385415;32;20425;-76
2021/03/29 10:50:08;;;;;;;0.60;0.60;;;15.90;99.90;;;;;;4382547;32;20511;-76
2021/03/29 10:52:35;;;;;;;2.50;0.77;;;15.80;99.90;;;;;;4382841;32;20070;-76
2021/03/29 10:55:01;;;;;;;0.62;0.57;;;15.60;99.90;;;;;;4381538;32;20183;-76
2021/03/29 10:57:26;;;;;;;0.40;0.40;;;15.60;99.90;;;;;;4385611;32;20058;-76
2021/03/29 10:59:52;;;;;;;0.45;0.45;;;15.60;99.90;;;;;;4413236;32;20085;-76
2021/03/29 11:02:17;;;;;;;8.23;2.15;;;15.60;99.90;;;;;;4413164;32;20137;-76
2021/03/29 11:04:43;;;;;;;1.20;0.98;;;15.70;99.90;;;;;;4413172;32;20074;-77
2021/03/29 11:07:09;;;;;;;0.52;0.50;;;15.80;99.90;;;;;;4402328;32;20078;-76
2021/03/29 11:09:34;;;;;;;0.47;0.47;;;16.00;99.90;;;;;;4393896;32;20094;-76
2021/03/29 11:12:00;;;;;;;0.65;0.62;;;16.10;99.90;;;;;;4383457;32;20061;-77
2021/03/29 11:14:26;;;;;;;1.33;1.12;;;16.20;99.90;;;;;;4386530;32;20452;-77
2021/03/29 11:16:55;;;;;;;1.85;1.30;;;16.20;99.90;;;;;;4385524;32;20525;-77
2021/03/29 11:19:22;;;;;;;0.40;0.40;;;16.40;99.90;;;;;;4385761;32;20058;-77
2021/03/29 11:21:49;;;;;;;0.40;0.40;;;16.40;99.90;;;;;;4387108;32;20083;-77
2021/03/29 11:24:15;;;;;;;0.50;0.50;;;16.40;99.90;;;;;;4371586;32;20090;-78
2021/03/29 11:26:40;;;;;;;7.25;0.77;;;16.30;99.90;;;;;;4384848;32;20083;-76
2021/03/29 11:29:07;;;;;;;0.22;0.22;;;16.30;99.90;;;;;;4372130;32;20078;-76
2021/03/29 11:31:34;;;;;;;2.85;0.77;;;16.30;99.90;;;;;;4385763;32;20160;-77
2021/03/29 11:33:59;;;;;;;0.95;0.77;;;16.20;99.30;;;;;;4385512;32;20110;-76
2021/03/29 11:36:25;;;;;;;0.35;0.35;;;16.20;99.20;;;;;;4385391;32;20462;-76
2021/03/29 11:38:50;;;;;;;0.40;0.40;;;16.30;99.30;;;;;;4385869;32;20498;-76
2021/03/29 11:41:20;;;;;;;0.25;0.25;;;16.20;98.90;;;;;;4386350;32;20405;-77
2021/03/29 11:43:47;;;;;;;0.35;0.35;;;16.30;98.90;;;;;;4385887;32;20133;-77
2021/03/29 11:46:13;;;;;;;0.30;0.30;;;16.40;98.90;;;;;;4385491;32;20062;-78
2021/03/29 11:48:38;;;;;;;5.00;1.42;;;16.60;98.50;;;;;;4385325;32;20082;-77
2021/03/29 11:51:04;;;;;;;0.60;0.60;;;16.70;98.00;;;;;;4387041;32;20062;-78
2021/03/29 11:53:30;;;;;;;0.40;0.40;;;17.10;98.00;;;;;;4386123;32;20118;-78
2021/03/29 11:55:57;;;;;;;0.75;0.75;;;17.60;97.50;;;;;;4385950;32;20075;-76
2021/03/29 11:58:23;;;;;;;1.40;1.10;;;17.50;96.20;;;;;;4391907;32;20082;-76
2021/03/29 12:00:53;;;;;;;0.30;0.30;;;17.40;95.70;;;;;;4399454;32;20412;-76
2021/03/29 12:03:55;;;;;;;0.20;0.20;;;17.60;95.80;;;;;;4399650;32;20081;-77
2021/03/29 12:06:12;;;;;;;0.57;0.57;;;17.90;94.80;;;;;;4389110;32;20086;-78
2021/03/29 12:08:47;;;;;;;0.22;0.22;;;18.20;94.00;;;;;;4402150;32;20070;-79
2021/03/29 12:12:26;;;;;;;0.30;0.30;;;18.60;93.30;;;;;;4387188;32;20078;-77
2021/03/29 12:13:59;;;;;;;0.40;0.40;;;18.20;92.70;;;;;;4374936;32;20149;-78
2021/03/29 12:16:25;;;;;;;0.40;0.40;;;18.60;93.20;;;;;;4385755;32;20078;-77
2021/03/29 12:18:57;;;;;;;0.28;0.28;;;19.00;92.20;;;;;;4385078;32;20453;-76
2021/03/29 12:21:29;;;;;;;1.75;0.85;;;19.20;91.70;;;;;;4384459;32;20398;-78
2021/03/29 12:24:00;;;;;;;0.40;0.40;;;19.50;90.40;;;;;;4384457;32;20123;-76
2021/03/29 12:26:27;;;;;;;0.85;0.85;;;19.40;91.00;;;;;;4384077;32;20153;-77
2021/03/29 12:28:54;;;;;;;0.85;0.47;;;19.70;89.90;;;;;;4384264;32;20201;-77
2021/03/29 12:31:21;;;;;;;15.13;0.62;;;19.90;88.50;;;;;;4384179;32;20066;-76
2021/03/29 12:33:48;;;;;;;0.30;0.30;;;19.90;88.50;;;;;;4385963;32;20071;-77
2021/03/29 12:36:14;;;;;;;0.62;0.40;;;20.10;87.70;;;;;;4384987;32;20198;-76
2021/03/29 12:38:45;;;;;;;0.70;0.55;;;19.90;87.80;;;;;;4385264;32;20118;-76
2021/03/29 12:41:12;;;;;;;;;;;20.10;88.80;;;;;;4385236;32;20516;-77
2021/03/29 12:43:44;;;;;;;0.40;0.40;;;20.30;87.20;;;;;;4385234;32;20360;-77
2021/03/29 12:46:12;;;;;;;3.55;0.55;;;20.90;85.50;;;;;;4382689;32;20054;-77
2021/03/29 12:48:39;;;;;;;0.20;0.20;;;20.60;83.70;;;;;;4371138;32;20118;-76
2021/03/29 12:51:06;;;;;;;0.37;0.37;;;20.70;83.70;;;;;;4370096;32;20083;-77
2021/03/29 12:53:33;;;;;;;0.30;0.30;;;20.70;83.50;;;;;;4371187;32;20095;-77
2021/03/29 12:56:00;;;;;;;0.40;0.40;;;20.30;83.90;;;;;;4385381;32;20062;-77
2021/03/29 12:58:26;;;;;;;0.30;0.30;;;19.80;84.80;;;;;;4402734;32;20085;-78